createdAt,value
2022-12-06T00:02:25.137Z,100777.96
2022-12-06T00:04:58.367Z,100777.04
2022-12-06T00:07:33.133Z,100768.20
2022-12-06T00:10:08.353Z,100759.46
2022-12-06T00:12:41.468Z,100756.20
2022-12-06T00:15:15.075Z,100759.88
2022-12-06T00:17:48.283Z,100757.34
2022-12-06T00:20:21.830Z,100747.21
2022-12-06T00:22:55.104Z,100755.73
2022-12-06T00:25:28.368Z,100750.47
2022-12-06T00:28:01.424Z,100759.56
2022-12-06T00:30:34.341Z,100743.29
2022-12-06T00:33:07.555Z,100748.36
2022-12-06T00:35:40.652Z,100746.55
2022-12-06T00:38:14.037Z,100734.66
2022-12-06T00:40:47.078Z,100729.23
2022-12-06T00:43:20.218Z,100730.73
2022-12-06T00:45:53.484Z,100741.17
2022-12-06T00:48:27.107Z,100728.04
2022-12-06T00:51:00.335Z,100720.25
2022-12-06T00:53:33.699Z,100718.48
2022-12-06T00:56:07.857Z,100712.19
2022-12-06T00:58:41.088Z,100724.69
2022-12-06T01:01:16.809Z,100709.15
2022-12-06T01:03:52.338Z,100701.39
2022-12-06T01:06:28.322Z,100707.34
2022-12-06T01:09:04.231Z,100703.20
2022-12-06T01:11:37.782Z,100695.76
2022-12-06T01:14:10.966Z,100706.62
2022-12-06T01:16:44.231Z,100702.05
2022-12-06T01:19:17.451Z,100689.55
2022-12-06T01:21:54.291Z,100680.87
2022-12-06T01:24:27.487Z,100692.97
2022-12-06T01:27:00.750Z,100676.73
2022-12-06T01:29:34.321Z,100672.55
2022-12-06T01:32:08.482Z,100681.22
2022-12-06T01:34:41.735Z,100675.08
2022-12-06T01:37:14.676Z,100679.11
2022-12-06T01:39:47.944Z,100690.28
2022-12-06T01:42:21.704Z,100697.87
2022-12-06T01:44:58.200Z,100688.97
2022-12-06T01:47:34.052Z,100683.02
2022-12-06T01:50:10.980Z,100697.45
2022-12-06T01:52:47.263Z,100688.41
2022-12-06T01:55:23.463Z,100676.05
2022-12-06T01:57:59.607Z,100665.19
2022-12-06T02:00:32.958Z,100663.72
2022-12-06T02:03:08.689Z,100672.36
2022-12-06T02:05:41.762Z,100650.48
2022-12-06T02:08:16.552Z,100657.50
2022-12-06T02:10:50.005Z,100663.45
2022-12-06T02:13:24.306Z,100647.37
2022-12-06T02:16:02.841Z,100643.03
2022-12-06T02:18:40.535Z,100667.45
2022-12-06T02:21:16.389Z,100650.30
2022-12-06T02:24:24.581Z,100658.66
2022-12-06T02:27:03.635Z,100650.91
2022-12-06T02:30:03.355Z,100652.94
2022-12-06T02:32:39.823Z,100663.65
2022-12-06T02:35:16.767Z,100645.42
2022-12-06T02:37:53.132Z,100644.53
2022-12-06T02:40:29.090Z,100624.43
2022-12-06T02:43:05.349Z,100628.77
2022-12-06T02:45:41.471Z,100627.69
2022-12-06T02:48:17.242Z,100629.19
2022-12-06T02:50:53.315Z,100619.05
2022-12-06T02:53:29.571Z,100621.59
2022-12-06T02:56:11.226Z,100613.99
2022-12-06T02:58:44.479Z,100620.44
2022-12-06T03:01:21.044Z,100615.03
2022-12-06T03:04:10.768Z,100621.17
2022-12-06T03:06:57.687Z,100620.28
2022-12-06T03:09:57.484Z,100634.72
2022-12-06T03:12:35.600Z,100624.28
2022-12-06T03:15:17.731Z,100631.72
2022-12-06T03:17:53.973Z,100629.34
2022-12-06T03:20:30.602Z,100633.83
2022-12-06T03:23:06.802Z,100620.86
2022-12-06T03:25:40.435Z,100637.09
2022-12-06T03:28:15.673Z,100629.50
2022-12-06T03:30:52.511Z,100627.12
2022-12-06T03:33:28.133Z,100618.33
2022-12-06T03:36:02.053Z,100628.77
2022-12-06T03:38:38.235Z,100606.86
2022-12-06T03:41:13.237Z,100607.77
2022-12-06T03:43:46.777Z,100598.95
2022-12-06T03:46:22.756Z,100592.08
2022-12-06T03:48:59.437Z,100590.70
2022-12-06T03:51:35.415Z,100603.21
2022-12-06T03:54:10.448Z,100592.93
2022-12-06T03:56:43.711Z,100578.31
2022-12-06T03:59:17.151Z,100588.86
2022-12-06T04:01:50.517Z,100583.46
2022-12-06T04:04:24.746Z,100594.16
2022-12-06T04:07:20.087Z,100587.48
2022-12-06T04:09:55.057Z,100581.77
2022-12-06T04:12:45.738Z,100590.52
2022-12-06T04:15:20.408Z,100591.81
2022-12-06T04:18:14.196Z,100596.41
2022-12-06T04:21:07.398Z,100592.65
2022-12-06T04:23:42.430Z,100589.62
2022-12-06T04:26:17.337Z,100579.19
2022-12-06T04:29:09.183Z,100579.49
2022-12-06T04:32:00.620Z,100583.67
2022-12-06T04:34:51.705Z,100585.13
2022-12-06T04:37:42.340Z,100568.75
2022-12-06T04:40:15.816Z,100570.52
2022-12-06T04:43:06.282Z,100575.92
2022-12-06T04:45:39.267Z,100577.38
2022-12-06T04:48:14.632Z,100554.95
2022-12-06T04:50:51.153Z,100577.16
2022-12-06T04:53:29.674Z,100575.09
2022-12-06T04:56:03.413Z,100565.28
2022-12-06T04:58:36.955Z,100561.59
2022-12-06T05:01:10.537Z,100563.82
2022-12-06T05:03:44.468Z,100568.16
2022-12-06T05:06:17.998Z,100561.78
2022-12-06T05:08:51.273Z,100572.22
2022-12-06T05:11:24.494Z,100567.16
2022-12-06T05:13:57.681Z,100558.83
2022-12-06T05:16:31.132Z,100569.84
2022-12-06T05:19:04.423Z,100570.91
2022-12-06T05:21:37.584Z,100565.85
2022-12-06T05:24:11.754Z,100563.32
2022-12-06T05:26:45.241Z,100558.83
2022-12-06T05:29:20.063Z,100561.52
2022-12-06T05:31:53.319Z,100570.91
2022-12-06T05:34:27.663Z,100557.92
2022-12-06T05:37:00.828Z,100560.45
2022-12-06T05:39:33.988Z,100557.19
2022-12-06T05:42:07.396Z,100564.78
2022-12-06T05:44:41.365Z,100558.98
2022-12-06T05:47:14.701Z,100552.85
2022-12-06T05:49:48.155Z,100552.28
2022-12-06T05:52:22.641Z,100543.38
2022-12-06T05:54:56.010Z,100550.55
2022-12-06T05:57:29.280Z,100549.97
2022-12-06T06:00:02.648Z,100557.33
2022-12-06T06:02:37.806Z,100542.02
2022-12-06T06:05:12.323Z,100559.31
2022-12-06T06:07:46.010Z,100524.78
2022-12-06T06:10:19.803Z,100535.95
2022-12-06T06:12:54.257Z,100530.64
2022-12-06T06:15:27.365Z,100528.25
2022-12-06T06:18:00.539Z,100519.00
2022-12-06T06:20:33.793Z,100515.31
2022-12-06T06:23:06.939Z,100523.11
2022-12-06T06:25:41.732Z,100511.85
2022-12-06T06:28:14.866Z,100519.61
2022-12-06T06:30:48.055Z,100517.97
2022-12-06T06:33:21.351Z,100519.61
2022-12-06T06:35:54.370Z,100530.38
2022-12-06T06:38:27.533Z,100527.37
2022-12-06T06:41:03.827Z,100526.82
2022-12-06T06:43:37.002Z,100531.67
2022-12-06T06:46:11.308Z,100524.13
2022-12-06T06:48:44.773Z,100533.98
2022-12-06T06:51:18.232Z,100530.06
2022-12-06T06:53:51.370Z,100534.95
2022-12-06T06:56:24.438Z,100519.11
2022-12-06T06:58:57.607Z,100518.38
2022-12-06T07:01:30.841Z,100528.44
2022-12-06T07:04:04.873Z,100536.82
2022-12-06T07:06:38.220Z,100524.56
2022-12-06T07:09:12.356Z,100532.33
2022-12-06T07:11:45.751Z,100519.15
2022-12-06T07:14:18.904Z,100533.46
2022-12-06T07:16:52.213Z,100531.98
2022-12-06T07:19:25.617Z,100528.39
2022-12-06T07:21:58.991Z,100531.66
2022-12-06T07:24:35.664Z,100522.61
2022-12-06T07:27:07.028Z,100512.28
2022-12-06T07:29:40.181Z,100512.45
2022-12-06T07:32:13.355Z,100523.36
2022-12-06T07:34:46.568Z,100519.77
2022-12-06T07:37:20.672Z,100518.16
2022-12-06T07:39:53.617Z,100511.00
2022-12-06T07:42:44.554Z,100514.37
2022-12-06T07:45:18.685Z,100524.06
2022-12-06T07:47:51.954Z,100518.35
2022-12-06T07:50:25.626Z,100502.11
2022-12-06T07:53:00.537Z,100502.72
2022-12-06T07:55:33.792Z,100512.08
2022-12-06T07:58:06.945Z,100515.31
2022-12-06T08:00:41.681Z,100511.80
2022-12-06T08:03:15.134Z,100520.32
2022-12-06T08:05:56.989Z,100511.81
2022-12-06T08:08:30.943Z,100527.64
2022-12-06T08:11:05.451Z,100514.15
2022-12-06T08:13:46.122Z,100514.00
2022-12-06T08:16:20.173Z,100506.94
2022-12-06T08:18:53.628Z,100484.22
2022-12-06T08:21:27.173Z,100490.33
2022-12-06T08:24:00.429Z,100496.81
2022-12-06T08:26:34.305Z,100496.37
2022-12-06T08:29:07.889Z,100468.08
2022-12-06T08:31:41.430Z,100464.41
2022-12-06T08:34:16.436Z,100445.06
2022-12-06T08:36:49.674Z,100450.93
2022-12-06T08:39:24.410Z,100456.39
2022-12-06T08:41:58.429Z,100479.19
2022-12-06T08:44:33.566Z,100458.61
2022-12-06T08:47:07.034Z,100460.70
2022-12-06T08:49:40.331Z,100436.84
2022-12-06T08:52:13.675Z,100438.33
2022-12-06T08:54:49.809Z,100425.01
2022-12-06T08:57:22.958Z,100440.80
2022-12-06T08:59:56.350Z,100431.39
2022-12-06T09:02:30.077Z,100443.72
2022-12-06T09:05:03.380Z,100422.22
2022-12-06T09:07:36.362Z,100424.73
2022-12-06T09:10:11.852Z,100413.37
2022-12-06T09:12:45.038Z,100401.05
2022-12-06T09:15:18.362Z,100400.75
2022-12-06T09:17:51.311Z,100396.17
2022-12-06T09:20:24.667Z,100403.84
2022-12-06T09:22:58.901Z,100393.39
2022-12-06T09:25:32.017Z,100413.53
2022-12-06T09:28:05.919Z,100398.84
2022-12-06T09:30:39.249Z,100389.15
2022-12-06T09:33:12.368Z,100388.41
2022-12-06T09:35:45.579Z,100398.53
2022-12-06T09:38:19.221Z,100386.00
2022-12-06T09:40:55.853Z,100371.41
2022-12-06T09:43:36.699Z,100385.02
2022-12-06T09:46:18.128Z,100374.62
2022-12-06T09:49:08.745Z,100368.48
2022-12-06T09:51:53.785Z,100385.11
2022-12-06T09:54:35.062Z,100376.39
2022-12-06T09:57:11.514Z,100373.72
2022-12-06T09:59:49.079Z,100371.95
2022-12-06T10:02:37.685Z,100380.10
2022-12-06T10:05:36.996Z,100371.25
2022-12-06T10:08:18.818Z,100360.76
2022-12-06T10:11:05.373Z,100361.19
2022-12-06T10:13:43.545Z,100338.95
2022-12-06T10:16:20.821Z,100353.23
2022-12-06T10:19:06.278Z,100346.64
2022-12-06T10:21:46.595Z,100349.42
2022-12-06T10:24:27.299Z,100343.12
2022-12-06T10:27:03.251Z,100328.64
2022-12-06T10:29:39.420Z,100334.78
2022-12-06T10:32:18.702Z,100345.89
2022-12-06T10:34:57.666Z,100321.45
2022-12-06T10:37:38.445Z,100345.64
2022-12-06T10:40:16.526Z,100324.66
2022-12-06T10:42:52.776Z,100311.67
2022-12-06T10:45:47.277Z,100334.97
2022-12-06T10:48:23.243Z,100317.02
2022-12-06T10:51:00.774Z,100323.14
2022-12-06T10:53:37.217Z,100329.31
2022-12-06T10:56:13.811Z,100301.19
2022-12-06T10:58:50.163Z,100311.94
2022-12-06T11:01:27.421Z,100299.52
2022-12-06T11:04:04.045Z,100309.21
2022-12-06T11:06:40.598Z,100295.52
2022-12-06T11:09:17.635Z,100289.92
2022-12-06T11:11:52.030Z,100299.02
2022-12-06T11:14:27.919Z,100311.53
2022-12-06T11:17:03.829Z,100295.05
2022-12-06T11:19:39.930Z,100302.28
2022-12-06T11:22:17.794Z,100319.09
2022-12-06T11:24:50.916Z,100309.12
2022-12-06T11:27:26.509Z,100300.80
2022-12-06T11:30:00.329Z,100323.72
2022-12-06T11:32:35.449Z,100316.30
2022-12-06T11:35:15.120Z,100304.45
2022-12-06T11:37:49.456Z,100297.41
2022-12-06T11:40:25.953Z,100297.02
2022-12-06T11:43:02.000Z,100294.92
2022-12-06T11:45:37.339Z,100316.73
2022-12-06T11:48:16.831Z,100286.75
2022-12-06T11:50:51.512Z,100300.56
2022-12-06T11:53:28.698Z,100310.88
2022-12-06T11:56:04.652Z,100296.05
2022-12-06T11:58:41.064Z,100280.05
2022-12-06T12:01:15.004Z,100306.61
2022-12-06T12:03:48.843Z,100301.66
2022-12-06T12:06:25.542Z,100340.23
2022-12-06T12:09:01.712Z,100310.66
2022-12-06T12:11:37.464Z,100302.50
2022-12-06T12:14:14.063Z,100311.84
2022-12-06T12:16:50.799Z,100305.59
2022-12-06T12:19:32.274Z,100311.83
2022-12-06T12:22:17.472Z,100311.32
2022-12-06T12:25:17.822Z,100289.33
2022-12-06T12:27:47.970Z,100303.02
2022-12-06T12:30:34.566Z,100301.87
2022-12-06T12:33:18.516Z,100302.61
2022-12-06T12:35:54.339Z,100304.59
2022-12-06T12:38:31.101Z,100289.30
2022-12-06T12:41:07.828Z,100327.89
2022-12-06T12:43:43.728Z,100283.64
2022-12-06T12:46:21.083Z,100299.09
2022-12-06T12:48:54.738Z,100330.23
2022-12-06T12:51:37.116Z,100316.97
2022-12-06T12:54:21.840Z,100317.48
2022-12-06T12:56:55.370Z,100294.78
2022-12-06T12:59:30.985Z,100302.07
2022-12-06T13:02:08.240Z,100285.86
2022-12-06T13:04:43.838Z,100335.08
2022-12-06T13:07:25.944Z,100319.77
2022-12-06T13:10:03.220Z,100321.33
2022-12-06T13:12:39.381Z,100305.27
2022-12-06T13:15:17.765Z,100311.13
2022-12-06T13:17:59.425Z,100308.70
2022-12-06T13:20:31.538Z,100314.19
2022-12-06T13:23:08.490Z,100320.80
2022-12-06T13:25:43.099Z,100318.89
2022-12-06T13:28:19.406Z,100303.98
2022-12-06T13:30:55.246Z,100319.77
2022-12-06T13:33:31.319Z,100305.27
2022-12-06T13:36:07.051Z,100306.54
2022-12-06T13:38:42.005Z,100310.36
2022-12-06T13:41:19.971Z,100301.28
2022-12-06T13:43:53.101Z,100297.09
2022-12-06T13:46:36.659Z,100291.48
2022-12-06T13:49:27.742Z,100303.47
2022-12-06T13:52:01.045Z,100298.61
2022-12-06T13:54:35.112Z,100301.80
2022-12-06T13:57:27.096Z,100320.17
2022-12-06T14:00:00.898Z,100274.02
2022-12-06T14:02:53.694Z,100327.94
2022-12-06T14:06:09.094Z,100305.89
2022-12-06T14:08:41.168Z,100276.05
2022-12-06T14:11:23.892Z,100285.33
2022-12-06T14:14:07.314Z,100276.69
2022-12-06T14:16:43.453Z,100300.91
2022-12-06T14:19:19.876Z,100288.68
2022-12-06T14:21:58.204Z,100285.84
2022-12-06T14:24:36.259Z,100289.67
2022-12-06T14:27:14.881Z,100289.80
2022-12-06T14:30:00.916Z,100277.19
2022-12-06T14:32:38.257Z,100271.30
2022-12-06T14:35:16.404Z,100278.71
2022-12-06T14:37:51.495Z,100281.38
2022-12-06T14:40:45.709Z,100294.53
2022-12-06T14:43:04.252Z,100308.92
2022-12-06T14:45:37.831Z,100277.66
2022-12-06T14:48:14.208Z,100283.68
2022-12-06T14:50:49.533Z,100289.66
2022-12-06T14:53:33.257Z,100272.56
2022-12-06T14:56:08.684Z,100278.58
2022-12-06T14:58:44.282Z,100260.72
2022-12-06T15:01:20.891Z,100264.38
2022-12-06T15:04:01.692Z,100268.84
2022-12-06T15:06:36.361Z,100278.94
2022-12-06T15:09:16.411Z,100267.09
2022-12-06T15:12:07.703Z,100279.69
2022-12-06T15:14:51.038Z,100267.46
2022-12-06T15:17:25.057Z,100267.84
2022-12-06T15:19:58.504Z,100283.80
2022-12-06T15:22:31.947Z,100244.88
2022-12-06T15:25:05.387Z,100267.09
2022-12-06T15:27:38.450Z,100258.52
2022-12-06T15:30:15.017Z,100248.31
2022-12-06T15:32:48.125Z,100262.86
2022-12-06T15:35:22.789Z,100263.74
2022-12-06T15:37:56.096Z,100250.11
2022-12-06T15:40:29.822Z,100268.35
2022-12-06T15:43:03.040Z,100249.34
2022-12-06T15:45:36.133Z,100263.74
2022-12-06T15:48:10.208Z,100275.86
2022-12-06T15:50:44.020Z,100272.17
2022-12-06T15:53:19.451Z,100271.52
2022-12-06T15:56:00.930Z,100244.74
2022-12-06T15:58:35.332Z,100265.39
2022-12-06T16:01:17.393Z,100237.32
2022-12-06T16:03:58.591Z,100259.57
2022-12-06T16:06:31.918Z,100272.26
2022-12-06T16:09:05.123Z,100262.40
2022-12-06T16:11:38.548Z,100278.36
2022-12-06T16:14:13.477Z,100262.81
2022-12-06T16:16:46.795Z,100247.00
2022-12-06T16:19:20.155Z,100256.56
2022-12-06T16:21:58.727Z,100250.81
2022-12-06T16:24:31.856Z,100256.68
2022-12-06T16:27:05.433Z,100259.00
2022-12-06T16:29:38.519Z,100256.33
2022-12-06T16:32:11.807Z,100260.67
2022-12-06T16:34:44.911Z,100239.34
2022-12-06T16:37:18.587Z,100248.14
2022-12-06T16:39:52.671Z,100251.69
2022-12-06T16:42:28.155Z,100249.28
2022-12-06T16:45:02.559Z,100248.79
2022-12-06T16:47:35.937Z,100243.91
2022-12-06T16:50:13.128Z,100244.56
2022-12-06T16:52:46.426Z,100250.31
2022-12-06T16:55:22.197Z,100245.48
2022-12-06T16:57:55.311Z,100233.70
2022-12-06T17:00:28.935Z,100244.56
2022-12-06T17:03:02.075Z,100239.11
2022-12-06T17:05:35.479Z,100220.98
2022-12-06T17:08:09.218Z,100239.64
2022-12-06T17:10:42.346Z,100250.49
2022-12-06T17:13:15.161Z,100233.74
2022-12-06T17:15:48.276Z,100235.53
2022-12-06T17:18:21.510Z,100220.52
2022-12-06T17:20:55.577Z,100240.93
2022-12-06T17:23:29.152Z,100254.68
2022-12-06T17:26:02.505Z,100216.70
2022-12-06T17:28:35.944Z,100216.20
2022-12-06T17:31:11.121Z,100229.83
2022-12-06T17:33:45.305Z,100223.21
2022-12-06T17:36:23.682Z,100221.07
2022-12-06T17:38:54.410Z,100222.47
2022-12-06T17:41:51.551Z,100220.92
2022-12-06T17:44:22.221Z,100244.67
2022-12-06T17:46:56.040Z,100221.20
2022-12-06T17:49:30.205Z,100228.10
2022-12-06T17:52:03.932Z,100214.55
2022-12-06T17:54:37.372Z,100246.72
2022-12-06T17:57:15.768Z,100203.88
2022-12-06T17:59:50.496Z,100219.94
2022-12-06T18:02:26.306Z,100227.20
2022-12-06T18:05:01.382Z,100223.78
2022-12-06T18:07:35.740Z,100209.12
2022-12-06T18:10:12.215Z,100225.70
2022-12-06T18:12:47.031Z,100208.61
2022-12-06T18:15:41.180Z,100229.77
2022-12-06T18:18:15.955Z,100208.89
2022-12-06T18:20:49.269Z,100222.92
2022-12-06T18:23:22.685Z,100205.83
2022-12-06T18:25:57.592Z,100224.03
2022-12-06T18:28:30.984Z,100224.67
2022-12-06T18:31:09.814Z,100215.27
2022-12-06T18:33:50.867Z,100212.33
2022-12-06T18:36:24.405Z,100209.78
2022-12-06T18:39:10.934Z,100216.03
2022-12-06T18:41:47.105Z,100233.87
2022-12-06T18:44:24.446Z,100200.62
2022-12-06T18:46:58.428Z,100205.56
2022-12-06T18:49:32.181Z,100199.70
2022-12-06T18:52:06.460Z,100200.74
2022-12-06T18:54:41.034Z,100184.54
2022-12-06T18:57:13.925Z,100202.26
2022-12-06T18:59:47.073Z,100209.15
2022-12-06T19:02:21.141Z,100184.30
2022-12-06T19:05:00.742Z,100181.62
2022-12-06T19:07:36.899Z,100186.61
2022-12-06T19:10:12.011Z,100181.52
2022-12-06T19:12:45.255Z,100182.67
2022-12-06T19:15:18.580Z,100188.00
2022-12-06T19:17:53.632Z,100172.20
2022-12-06T19:20:26.686Z,100189.67
2022-12-06T19:22:59.772Z,100173.23
2022-12-06T19:25:32.865Z,100168.14
2022-12-06T19:28:06.486Z,100181.64
2022-12-06T19:30:39.696Z,100166.59
2022-12-06T19:33:12.833Z,100178.33
2022-12-06T19:35:47.508Z,100173.23
2022-12-06T19:38:21.790Z,100173.48
2022-12-06T19:40:55.482Z,100182.39
2022-12-06T19:43:46.384Z,100158.70
2022-12-06T19:46:22.039Z,100180.13
2022-12-06T19:48:57.156Z,100174.88
2022-12-06T19:51:30.348Z,100182.67
2022-12-06T19:54:04.053Z,100157.95
2022-12-06T19:56:38.747Z,100165.71
2022-12-06T20:00:22.769Z,100171.69
2022-12-06T20:03:09.484Z,100172.48
2022-12-06T20:05:49.391Z,100158.70
2022-12-06T20:08:35.693Z,100156.91
2022-12-06T20:11:14.922Z,100182.39
2022-12-06T20:13:47.150Z,100166.34
2022-12-06T20:16:22.157Z,100168.90
2022-12-06T20:18:55.585Z,100168.02
2022-12-06T20:21:29.231Z,100158.70
2022-12-06T20:24:02.669Z,100174.11
2022-12-06T20:26:36.116Z,100170.93
2022-12-06T20:29:09.267Z,100184.06
2022-12-06T20:31:42.353Z,100163.41
2022-12-06T20:34:16.611Z,100172.72
2022-12-06T20:36:50.142Z,100155.27
2022-12-06T20:39:25.499Z,100178.21
2022-12-06T20:41:59.304Z,100161.48
2022-12-06T20:44:32.713Z,100159.73
2022-12-06T20:47:06.059Z,100163.04
2022-12-06T20:49:42.801Z,100171.84
2022-12-06T20:52:15.730Z,100171.69
2022-12-06T20:54:48.771Z,100159.85
2022-12-06T20:57:22.164Z,100144.05
2022-12-06T20:59:55.296Z,100180.48
2022-12-06T21:02:28.414Z,100154.64
2022-12-06T21:05:01.625Z,100159.97
2022-12-06T21:07:35.123Z,100162.64
2022-12-06T21:10:14.273Z,100159.33
2022-12-06T21:12:47.379Z,100159.22
2022-12-06T21:15:20.751Z,100167.22
2022-12-06T21:17:56.225Z,100158.45
2022-12-06T21:20:35.066Z,100150.66
2022-12-06T21:23:09.252Z,100165.70
2022-12-06T21:25:45.296Z,100168.14
2022-12-06T21:28:21.959Z,100155.91
2022-12-06T21:31:01.477Z,100166.74
2022-12-06T21:33:35.539Z,100170.05
2022-12-06T21:36:09.982Z,100153.61
2022-12-06T21:38:43.077Z,100168.66
2022-12-06T21:41:16.280Z,100188.25
2022-12-06T21:43:49.641Z,100160.50
2022-12-06T21:46:24.764Z,100162.53
2022-12-06T21:48:59.539Z,100194.37
2022-12-06T21:51:33.715Z,100162.16
2022-12-06T21:54:07.057Z,100159.34
2022-12-06T21:56:40.287Z,100164.20
2022-12-06T21:59:13.201Z,100159.22
2022-12-06T22:01:46.281Z,100187.13
2022-12-06T22:04:19.441Z,100160.49
2022-12-06T22:06:52.454Z,100182.66
2022-12-06T22:09:25.488Z,100180.34
2022-12-06T22:11:58.579Z,100177.05
2022-12-06T22:14:32.220Z,100178.43
2022-12-06T22:17:05.440Z,100181.50
2022-12-06T22:19:38.668Z,100179.34
2022-12-06T22:22:11.722Z,100202.90
2022-12-06T22:24:44.754Z,100192.08
2022-12-06T22:27:21.949Z,100179.06
2022-12-06T22:29:55.131Z,100166.84
2022-12-06T22:32:28.235Z,100154.63
2022-12-06T22:35:01.778Z,100174.47
2022-12-06T22:37:35.019Z,100182.63
2022-12-06T22:40:10.692Z,100185.05
2022-12-06T22:42:43.735Z,100176.64
2022-12-06T22:45:17.146Z,100167.34
2022-12-06T22:47:50.150Z,100204.48
2022-12-06T22:50:23.306Z,100170.64
2022-12-06T22:52:56.462Z,100192.39
2022-12-06T22:55:29.592Z,100186.17
2022-12-06T22:58:02.608Z,100166.56
2022-12-06T23:00:35.833Z,100164.89
2022-12-06T23:03:08.633Z,100201.45
2022-12-06T23:05:41.689Z,100206.13
2022-12-06T23:08:14.815Z,100185.64
2022-12-06T23:10:48.081Z,100163.23
2022-12-06T23:13:22.012Z,100184.35
2022-12-06T23:15:59.625Z,100187.91
2022-12-06T23:18:31.528Z,100200.63
2022-12-06T23:21:05.777Z,100199.63
2022-12-06T23:23:39.685Z,100181.55
2022-12-06T23:26:15.329Z,100171.59
2022-12-06T23:28:48.768Z,100173.77
2022-12-06T23:31:23.949Z,100191.45
2022-12-06T23:33:59.511Z,100191.23
2022-12-06T23:36:34.632Z,100182.44
2022-12-06T23:39:08.371Z,100196.83
2022-12-06T23:41:42.080Z,100166.78
2022-12-06T23:44:15.774Z,100192.98
2022-12-06T23:46:50.572Z,100190.45
2022-12-06T23:49:24.426Z,100195.53
2022-12-06T23:51:57.630Z,100168.33
2022-12-06T23:54:30.858Z,100184.10
2022-12-06T23:57:03.852Z,100174.92
2022-12-06T23:59:37.440Z,100174.30
